sensor_id;sensor_type;location;lat;lon;timestamp;temperature;humidity
43858;DHT22;29507;51.284;5.758;2023-07-16T00:00:49;16.60;99.90
43858;DHT22;29507;51.284;5.758;2023-07-16T00:03:15;16.60;99.90
43858;DHT22;29507;51.284;5.758;2023-07-16T00:05:41;16.60;99.90
43858;DHT22;29507;51.284;5.758;2023-07-16T00:08:06;16.50;99.90
43858;DHT22;29507;51.284;5.758;2023-07-16T00:10:36;16.50;99.90
43858;DHT22;29507;51.284;5.758;2023-07-16T00:13:05;16.50;99.90
43858;DHT22;29507;51.284;5.758;2023-07-16T00:15:30;16.50;99.90
43858;DHT22;29507;51.284;5.758;2023-07-16T00:17:56;16.50;99.90
43858;DHT22;29507;51.284;5.758;2023-07-16T00:20:22;16.50;99.90
43858;DHT22;29507;51.284;5.758;2023-07-16T00:22:49;16.50;99.90
43858;DHT22;29507;51.284;5.758;2023-07-16T00:25:15;16.50;99.90
43858;DHT22;29507;51.284;5.758;2023-07-16T00:27:41;16.50;99.90
43858;DHT22;29507;51.284;5.758;2023-07-16T00:30:07;16.40;99.90
43858;DHT22;29507;51.284;5.758;2023-07-16T00:32:33;16.40;99.90
43858;DHT22;29507;51.284;5.758;2023-07-16T00:34:59;16.30;99.90
43858;DHT22;29507;51.284;5.758;2023-07-16T00:37:24;16.30;99.90
43858;DHT22;29507;51.284;5.758;2023-07-16T00:39:50;16.20;99.90
43858;DHT22;29507;51.284;5.758;2023-07-16T00:42:16;16.20;99.90
43858;DHT22;29507;51.284;5.758;2023-07-16T00:44:41;16.10;99.90
43858;DHT22;29507;51.284;5.758;2023-07-16T00:47:08;16.10;99.90
43858;DHT22;29507;51.284;5.758;2023-07-16T00:49:34;16.00;99.90
43858;DHT22;29507;51.284;5.758;2023-07-16T00:52:00;16.00;99.90
43858;DHT22;29507;51.284;5.758;2023-07-16T00:54:26;16.00;99.90
43858;DHT22;29507;51.284;5.758;2023-07-16T00:56:53;15.90;99.90
43858;DHT22;29507;51.284;5.758;2023-07-16T00:59:18;15.90;99.90
43858;DHT22;29507;51.284;5.758;2023-07-16T01:01:44;15.90;99.90
43858;DHT22;29507;51.284;5.758;2023-07-16T01:04:09;15.80;99.90
43858;DHT22;29507;51.284;5.758;2023-07-16T01:06:55;15.80;99.90
43858;DHT22;29507;51.284;5.758;2023-07-16T01:09:24;15.80;99.90
43858;DHT22;29507;51.284;5.758;2023-07-16T01:11:51;15.80;99.90
43858;DHT22;29507;51.284;5.758;2023-07-16T01:14:17;15.70;99.90
43858;DHT22;29507;51.284;5.758;2023-07-16T01:16:43;15.70;99.90
43858;DHT22;29507;51.284;5.758;2023-07-16T01:19:09;15.70;99.90
43858;DHT22;29507;51.284;5.758;2023-07-16T01:22:03;15.80;99.90
43858;DHT22;29507;51.284;5.758;2023-07-16T01:30:00;15.70;99.90
43858;DHT22;29507;51.284;5.758;2023-07-16T01:32:28;15.80;99.90
43858;DHT22;29507;51.284;5.758;2023-07-16T01:34:55;15.80;99.90
43858;DHT22;29507;51.284;5.758;2023-07-16T01:37:22;15.80;99.90
43858;DHT22;29507;51.284;5.758;2023-07-16T01:39:48;15.70;99.90
43858;DHT22;29507;51.284;5.758;2023-07-16T01:42:14;15.70;99.90
43858;DHT22;29507;51.284;5.758;2023-07-16T01:44:40;15.60;99.90
43858;DHT22;29507;51.284;5.758;2023-07-16T01:49:32;15.60;99.90
43858;DHT22;29507;51.284;5.758;2023-07-16T01:51:59;15.50;99.90
43858;DHT22;29507;51.284;5.758;2023-07-16T01:54:25;15.50;99.90
43858;DHT22;29507;51.284;5.758;2023-07-16T01:56:50;15.50;99.90
43858;DHT22;29507;51.284;5.758;2023-07-16T01:59:17;15.40;99.90
43858;DHT22;29507;51.284;5.758;2023-07-16T02:01:43;15.40;99.90
43858;DHT22;29507;51.284;5.758;2023-07-16T02:04:08;15.40;99.90
43858;DHT22;29507;51.284;5.758;2023-07-16T02:06:34;15.40;99.90
43858;DHT22;29507;51.284;5.758;2023-07-16T02:08:59;15.40;99.90
43858;DHT22;29507;51.284;5.758;2023-07-16T02:11:25;15.30;99.90
43858;DHT22;29507;51.284;5.758;2023-07-16T02:13:50;15.30;99.90
43858;DHT22;29507;51.284;5.758;2023-07-16T02:16:16;15.30;99.90
43858;DHT22;29507;51.284;5.758;2023-07-16T02:18:42;15.30;99.90
43858;DHT22;29507;51.284;5.758;2023-07-16T02:21:07;15.30;99.90
43858;DHT22;29507;51.284;5.758;2023-07-16T02:23:33;15.20;99.90
43858;DHT22;29507;51.284;5.758;2023-07-16T02:25:58;15.30;99.90
43858;DHT22;29507;51.284;5.758;2023-07-16T02:28:24;15.30;99.90
43858;DHT22;29507;51.284;5.758;2023-07-16T02:30:50;15.30;99.90
43858;DHT22;29507;51.284;5.758;2023-07-16T02:33:16;15.30;99.90
43858;DHT22;29507;51.284;5.758;2023-07-16T02:35:46;15.30;99.90
43858;DHT22;29507;51.284;5.758;2023-07-16T02:38:13;15.30;99.90
43858;DHT22;29507;51.284;5.758;2023-07-16T02:40:46;15.20;99.90
43858;DHT22;29507;51.284;5.758;2023-07-16T02:43:12;15.20;99.90
43858;DHT22;29507;51.284;5.758;2023-07-16T02:45:38;15.20;99.90
43858;DHT22;29507;51.284;5.758;2023-07-16T02:48:05;15.20;99.90
43858;DHT22;29507;51.284;5.758;2023-07-16T02:50:34;15.30;99.90
43858;DHT22;29507;51.284;5.758;2023-07-16T02:52:59;15.30;99.90
43858;DHT22;29507;51.284;5.758;2023-07-16T02:55:25;15.30;99.90
43858;DHT22;29507;51.284;5.758;2023-07-16T02:57:50;15.30;99.90
43858;DHT22;29507;51.284;5.758;2023-07-16T03:00:16;15.30;99.90
43858;DHT22;29507;51.284;5.758;2023-07-16T03:02:42;15.30;99.90
43858;DHT22;29507;51.284;5.758;2023-07-16T03:05:08;15.30;99.90
43858;DHT22;29507;51.284;5.758;2023-07-16T03:07:33;15.30;99.90
43858;DHT22;29507;51.284;5.758;2023-07-16T03:10:00;15.30;99.90
43858;DHT22;29507;51.284;5.758;2023-07-16T03:12:26;15.30;99.90
43858;DHT22;29507;51.284;5.758;2023-07-16T03:14:51;15.40;99.90
43858;DHT22;29507;51.284;5.758;2023-07-16T03:17:20;15.30;99.90
43858;DHT22;29507;51.284;5.758;2023-07-16T03:19:46;15.30;99.90
43858;DHT22;29507;51.284;5.758;2023-07-16T03:22:12;15.30;99.90
43858;DHT22;29507;51.284;5.758;2023-07-16T03:24:37;15.40;99.90
43858;DHT22;29507;51.284;5.758;2023-07-16T03:27:03;15.40;99.90
43858;DHT22;29507;51.284;5.758;2023-07-16T03:29:29;15.30;99.90
43858;DHT22;29507;51.284;5.758;2023-07-16T03:31:55;15.30;99.90
43858;DHT22;29507;51.284;5.758;2023-07-16T03:34:20;15.30;99.90
43858;DHT22;29507;51.284;5.758;2023-07-16T03:36:47;15.30;99.90
43858;DHT22;29507;51.284;5.758;2023-07-16T03:39:12;15.30;99.90
43858;DHT22;29507;51.284;5.758;2023-07-16T03:41:38;15.20;99.90
43858;DHT22;29507;51.284;5.758;2023-07-16T03:44:04;15.20;99.90
43858;DHT22;29507;51.284;5.758;2023-07-16T03:46:29;15.10;99.90
43858;DHT22;29507;51.284;5.758;2023-07-16T03:48:55;15.30;99.90
43858;DHT22;29507;51.284;5.758;2023-07-16T03:51:20;15.30;99.90
43858;DHT22;29507;51.284;5.758;2023-07-16T03:53:46;15.40;99.90
43858;DHT22;29507;51.284;5.758;2023-07-16T03:56:11;15.40;99.90
43858;DHT22;29507;51.284;5.758;2023-07-16T03:58:37;15.30;99.90
43858;DHT22;29507;51.284;5.758;2023-07-16T04:01:03;15.20;99.90
43858;DHT22;29507;51.284;5.758;2023-07-16T04:03:28;15.20;99.90
43858;DHT22;29507;51.284;5.758;2023-07-16T04:06:10;15.10;99.90
43858;DHT22;29507;51.284;5.758;2023-07-16T04:08:36;15.10;99.90
43858;DHT22;29507;51.284;5.758;2023-07-16T04:11:03;15.10;99.90
43858;DHT22;29507;51.284;5.758;2023-07-16T04:13:29;15.10;99.90
43858;DHT22;29507;51.284;5.758;2023-07-16T04:15:55;15.10;99.90
43858;DHT22;29507;51.284;5.758;2023-07-16T04:18:23;15.10;99.90
43858;DHT22;29507;51.284;5.758;2023-07-16T04:20:49;15.10;99.90
43858;DHT22;29507;51.284;5.758;2023-07-16T04:23:14;15.00;99.90
43858;DHT22;29507;51.284;5.758;2023-07-16T04:25:40;15.00;99.90
43858;DHT22;29507;51.284;5.758;2023-07-16T04:28:06;14.90;99.90
43858;DHT22;29507;51.284;5.758;2023-07-16T04:30:31;14.90;99.90
43858;DHT22;29507;51.284;5.758;2023-07-16T04:32:57;14.90;99.90
43858;DHT22;29507;51.284;5.758;2023-07-16T04:35:23;14.90;99.90
43858;DHT22;29507;51.284;5.758;2023-07-16T04:37:48;15.00;99.90
43858;DHT22;29507;51.284;5.758;2023-07-16T04:40:14;15.10;99.90
43858;DHT22;29507;51.284;5.758;2023-07-16T04:42:39;15.10;99.90
43858;DHT22;29507;51.284;5.758;2023-07-16T04:45:05;15.20;99.90
43858;DHT22;29507;51.284;5.758;2023-07-16T04:47:31;15.20;99.90
43858;DHT22;29507;51.284;5.758;2023-07-16T04:50:00;15.30;99.90
43858;DHT22;29507;51.284;5.758;2023-07-16T04:52:26;15.20;99.90
43858;DHT22;29507;51.284;5.758;2023-07-16T04:54:51;15.30;99.90
43858;DHT22;29507;51.284;5.758;2023-07-16T04:57:17;15.20;99.90
43858;DHT22;29507;51.284;5.758;2023-07-16T04:59:42;15.20;99.90
43858;DHT22;29507;51.284;5.758;2023-07-16T05:02:08;15.20;99.90
43858;DHT22;29507;51.284;5.758;2023-07-16T05:04:34;15.20;99.90
43858;DHT22;29507;51.284;5.758;2023-07-16T05:07:04;15.30;99.90
43858;DHT22;29507;51.284;5.758;2023-07-16T05:09:29;15.30;99.90
43858;DHT22;29507;51.284;5.758;2023-07-16T05:11:55;15.40;99.90
43858;DHT22;29507;51.284;5.758;2023-07-16T05:14:21;15.40;99.90
43858;DHT22;29507;51.284;5.758;2023-07-16T05:16:46;15.50;99.90
43858;DHT22;29507;51.284;5.758;2023-07-16T05:19:12;15.60;99.90
43858;DHT22;29507;51.284;5.758;2023-07-16T05:21:37;15.60;99.90
43858;DHT22;29507;51.284;5.758;2023-07-16T05:24:04;15.70;99.90
43858;DHT22;29507;51.284;5.758;2023-07-16T05:26:29;15.80;99.90
43858;DHT22;29507;51.284;5.758;2023-07-16T05:28:55;16.00;99.90
43858;DHT22;29507;51.284;5.758;2023-07-16T05:31:20;16.00;99.90
43858;DHT22;29507;51.284;5.758;2023-07-16T05:33:46;16.10;99.90
43858;DHT22;29507;51.284;5.758;2023-07-16T05:36:12;16.20;99.90
43858;DHT22;29507;51.284;5.758;2023-07-16T05:38:37;16.20;99.90
43858;DHT22;29507;51.284;5.758;2023-07-16T05:41:03;16.20;99.90
43858;DHT22;29507;51.284;5.758;2023-07-16T05:43:30;16.30;99.90
43858;DHT22;29507;51.284;5.758;2023-07-16T05:45:56;16.30;99.90
43858;DHT22;29507;51.284;5.758;2023-07-16T05:48:22;16.30;99.90
43858;DHT22;29507;51.284;5.758;2023-07-16T05:50:47;16.50;99.90
43858;DHT22;29507;51.284;5.758;2023-07-16T05:53:13;16.90;99.90
43858;DHT22;29507;51.284;5.758;2023-07-16T05:55:41;17.60;99.90
43858;DHT22;29507;51.284;5.758;2023-07-16T05:58:07;18.10;99.90
43858;DHT22;29507;51.284;5.758;2023-07-16T06:00:36;18.40;99.90
43858;DHT22;29507;51.284;5.758;2023-07-16T06:03:02;18.60;99.90
43858;DHT22;29507;51.284;5.758;2023-07-16T06:05:28;18.90;99.90
43858;DHT22;29507;51.284;5.758;2023-07-16T06:08:00;19.10;99.90
43858;DHT22;29507;51.284;5.758;2023-07-16T06:10:25;19.10;99.90
43858;DHT22;29507;51.284;5.758;2023-07-16T06:12:51;19.20;99.90
43858;DHT22;29507;51.284;5.758;2023-07-16T06:15:16;19.30;99.90
43858;DHT22;29507;51.284;5.758;2023-07-16T06:17:42;19.30;99.90
43858;DHT22;29507;51.284;5.758;2023-07-16T06:20:08;19.40;99.90
43858;DHT22;29507;51.284;5.758;2023-07-16T06:22:34;19.50;99.90
43858;DHT22;29507;51.284;5.758;2023-07-16T06:25:00;19.50;99.90
43858;DHT22;29507;51.284;5.758;2023-07-16T06:27:26;19.60;99.90
43858;DHT22;29507;51.284;5.758;2023-07-16T06:29:52;19.60;99.90
43858;DHT22;29507;51.284;5.758;2023-07-16T06:32:18;19.70;99.90
43858;DHT22;29507;51.284;5.758;2023-07-16T06:34:44;19.80;99.90
43858;DHT22;29507;51.284;5.758;2023-07-16T06:37:09;20.00;99.90
43858;DHT22;29507;51.284;5.758;2023-07-16T06:39:35;20.00;99.90
43858;DHT22;29507;51.284;5.758;2023-07-16T06:42:00;20.00;99.90
43858;DHT22;29507;51.284;5.758;2023-07-16T06:44:26;19.90;99.90
43858;DHT22;29507;51.284;5.758;2023-07-16T06:46:52;19.90;99.90
43858;DHT22;29507;51.284;5.758;2023-07-16T06:49:18;20.10;99.90
43858;DHT22;29507;51.284;5.758;2023-07-16T06:51:44;20.30;99.90
43858;DHT22;29507;51.284;5.758;2023-07-16T06:54:09;20.30;99.90
43858;DHT22;29507;51.284;5.758;2023-07-16T06:56:35;20.30;99.90
43858;DHT22;29507;51.284;5.758;2023-07-16T06:59:01;20.50;99.90
43858;DHT22;29507;51.284;5.758;2023-07-16T07:01:26;20.70;99.90
43858;DHT22;29507;51.284;5.758;2023-07-16T07:03:53;20.70;99.90
43858;DHT22;29507;51.284;5.758;2023-07-16T07:06:19;20.90;99.90
43858;DHT22;29507;51.284;5.758;2023-07-16T07:08:46;20.80;99.90
43858;DHT22;29507;51.284;5.758;2023-07-16T07:11:12;20.70;99.90
43858;DHT22;29507;51.284;5.758;2023-07-16T07:13:37;20.70;99.90
43858;DHT22;29507;51.284;5.758;2023-07-16T07:16:03;20.70;99.90
43858;DHT22;29507;51.284;5.758;2023-07-16T07:18:29;20.80;99.90
43858;DHT22;29507;51.284;5.758;2023-07-16T07:20:54;20.70;99.90
43858;DHT22;29507;51.284;5.758;2023-07-16T07:23:20;20.60;99.90
43858;DHT22;29507;51.284;5.758;2023-07-16T07:25:52;20.50;99.90
43858;DHT22;29507;51.284;5.758;2023-07-16T07:28:19;20.70;99.90
43858;DHT22;29507;51.284;5.758;2023-07-16T07:30:45;20.90;99.90
43858;DHT22;29507;51.284;5.758;2023-07-16T07:33:11;21.20;99.90
43858;DHT22;29507;51.284;5.758;2023-07-16T07:35:36;21.30;99.90
43858;DHT22;29507;51.284;5.758;2023-07-16T07:38:02;21.30;99.90
43858;DHT22;29507;51.284;5.758;2023-07-16T07:40:28;21.10;99.90
43858;DHT22;29507;51.284;5.758;2023-07-16T07:42:53;21.00;99.90
43858;DHT22;29507;51.284;5.758;2023-07-16T07:45:19;21.10;99.90
43858;DHT22;29507;51.284;5.758;2023-07-16T07:47:44;21.30;99.90
43858;DHT22;29507;51.284;5.758;2023-07-16T07:50:10;21.20;99.90
43858;DHT22;29507;51.284;5.758;2023-07-16T07:52:36;21.40;99.90
43858;DHT22;29507;51.284;5.758;2023-07-16T07:55:02;21.70;99.90
43858;DHT22;29507;51.284;5.758;2023-07-16T07:57:28;21.70;99.90
43858;DHT22;29507;51.284;5.758;2023-07-16T07:59:54;21.70;99.90
43858;DHT22;29507;51.284;5.758;2023-07-16T08:02:25;21.80;99.90
43858;DHT22;29507;51.284;5.758;2023-07-16T08:04:52;21.70;99.90
43858;DHT22;29507;51.284;5.758;2023-07-16T08:07:18;22.00;99.90
43858;DHT22;29507;51.284;5.758;2023-07-16T08:09:43;22.00;99.90
43858;DHT22;29507;51.284;5.758;2023-07-16T08:12:10;22.00;99.90
43858;DHT22;29507;51.284;5.758;2023-07-16T08:14:35;21.80;99.90
43858;DHT22;29507;51.284;5.758;2023-07-16T08:17:01;21.70;99.90
43858;DHT22;29507;51.284;5.758;2023-07-16T08:19:27;21.80;99.90
43858;DHT22;29507;51.284;5.758;2023-07-16T08:21:52;21.60;99.90
43858;DHT22;29507;51.284;5.758;2023-07-16T08:24:18;21.60;99.90
43858;DHT22;29507;51.284;5.758;2023-07-16T08:26:43;21.70;99.90
43858;DHT22;29507;51.284;5.758;2023-07-16T08:29:09;21.90;99.90
43858;DHT22;29507;51.284;5.758;2023-07-16T08:31:35;22.10;99.90
43858;DHT22;29507;51.284;5.758;2023-07-16T08:34:00;22.40;99.90
43858;DHT22;29507;51.284;5.758;2023-07-16T08:36:26;22.30;99.50
43858;DHT22;29507;51.284;5.758;2023-07-16T08:38:51;22.10;99.20
43858;DHT22;29507;51.284;5.758;2023-07-16T08:41:17;22.10;99.90
43858;DHT22;29507;51.284;5.758;2023-07-16T08:43:45;22.10;99.10
43858;DHT22;29507;51.284;5.758;2023-07-16T08:46:12;22.20;98.90
43858;DHT22;29507;51.284;5.758;2023-07-16T08:48:38;22.40;98.70
43858;DHT22;29507;51.284;5.758;2023-07-16T08:51:03;22.50;98.10
43858;DHT22;29507;51.284;5.758;2023-07-16T08:53:30;22.50;97.70
43858;DHT22;29507;51.284;5.758;2023-07-16T08:55:56;22.50;98.20
43858;DHT22;29507;51.284;5.758;2023-07-16T08:58:23;22.50;97.80
43858;DHT22;29507;51.284;5.758;2023-07-16T09:00:49;22.60;97.70
43858;DHT22;29507;51.284;5.758;2023-07-16T09:03:15;22.30;97.90
43858;DHT22;29507;51.284;5.758;2023-07-16T09:05:46;22.60;97.50
43858;DHT22;29507;51.284;5.758;2023-07-16T09:08:13;22.90;96.50
43858;DHT22;29507;51.284;5.758;2023-07-16T09:10:41;23.10;95.40
43858;DHT22;29507;51.284;5.758;2023-07-16T09:13:06;23.20;95.70
43858;DHT22;29507;51.284;5.758;2023-07-16T09:15:32;23.20;95.00
43858;DHT22;29507;51.284;5.758;2023-07-16T09:18:00;23.50;94.10
43858;DHT22;29507;51.284;5.758;2023-07-16T09:20:26;23.50;93.40
43858;DHT22;29507;51.284;5.758;2023-07-16T09:22:57;23.70;92.90
43858;DHT22;29507;51.284;5.758;2023-07-16T09:25:29;23.90;92.40
43858;DHT22;29507;51.284;5.758;2023-07-16T09:27:57;23.90;92.30
43858;DHT22;29507;51.284;5.758;2023-07-16T09:30:23;23.60;92.50
43858;DHT22;29507;51.284;5.758;2023-07-16T09:32:48;23.10;93.70
43858;DHT22;29507;51.284;5.758;2023-07-16T09:35:16;22.80;94.60
43858;DHT22;29507;51.284;5.758;2023-07-16T09:37:43;22.60;94.80
43858;DHT22;29507;51.284;5.758;2023-07-16T09:40:10;22.40;95.10
43858;DHT22;29507;51.284;5.758;2023-07-16T09:42:43;22.30;95.10
43858;DHT22;29507;51.284;5.758;2023-07-16T09:45:17;22.20;95.80
43858;DHT22;29507;51.284;5.758;2023-07-16T09:47:42;22.10;96.60
43858;DHT22;29507;51.284;5.758;2023-07-16T09:50:09;22.00;97.50
43858;DHT22;29507;51.284;5.758;2023-07-16T09:52:35;21.90;98.00
43858;DHT22;29507;51.284;5.758;2023-07-16T09:55:03;21.80;98.20
43858;DHT22;29507;51.284;5.758;2023-07-16T09:57:34;21.80;99.00
43858;DHT22;29507;51.284;5.758;2023-07-16T10:00:02;21.70;99.40
43858;DHT22;29507;51.284;5.758;2023-07-16T10:02:33;21.70;99.70
43858;DHT22;29507;51.284;5.758;2023-07-16T10:05:00;21.80;99.40
43858;DHT22;29507;51.284;5.758;2023-07-16T10:07:26;21.90;99.40
43858;DHT22;29507;51.284;5.758;2023-07-16T10:09:56;21.90;99.60
43858;DHT22;29507;51.284;5.758;2023-07-16T10:12:26;22.20;99.00
43858;DHT22;29507;51.284;5.758;2023-07-16T10:14:55;22.50;97.40
43858;DHT22;29507;51.284;5.758;2023-07-16T10:17:25;22.60;97.00
43858;DHT22;29507;51.284;5.758;2023-07-16T10:20:02;22.80;97.70
43858;DHT22;29507;51.284;5.758;2023-07-16T10:22:36;22.60;96.00
43858;DHT22;29507;51.284;5.758;2023-07-16T10:27:46;22.40;96.60
43858;DHT22;29507;51.284;5.758;2023-07-16T10:30:12;22.30;97.10
43858;DHT22;29507;51.284;5.758;2023-07-16T10:32:38;22.20;98.10
43858;DHT22;29507;51.284;5.758;2023-07-16T10:35:07;22.20;98.30
43858;DHT22;29507;51.284;5.758;2023-07-16T10:37:34;22.10;98.20
43858;DHT22;29507;51.284;5.758;2023-07-16T10:40:01;22.00;98.00
43858;DHT22;29507;51.284;5.758;2023-07-16T10:42:31;22.00;98.00
43858;DHT22;29507;51.284;5.758;2023-07-16T10:45:15;22.20;98.50
43858;DHT22;29507;51.284;5.758;2023-07-16T10:47:53;22.70;98.90
43858;DHT22;29507;51.284;5.758;2023-07-16T10:50:19;23.30;97.50
43858;DHT22;29507;51.284;5.758;2023-07-16T10:52:46;23.60;95.80
43858;DHT22;29507;51.284;5.758;2023-07-16T10:55:15;23.70;93.90
43858;DHT22;29507;51.284;5.758;2023-07-16T10:57:40;23.50;93.10
43858;DHT22;29507;51.284;5.758;2023-07-16T11:00:10;23.30;92.50
43858;DHT22;29507;51.284;5.758;2023-07-16T11:02:39;23.00;93.20
43858;DHT22;29507;51.284;5.758;2023-07-16T11:05:13;22.90;93.40
43858;DHT22;29507;51.284;5.758;2023-07-16T11:07:43;22.70;92.80
43858;DHT22;29507;51.284;5.758;2023-07-16T11:10:10;22.60;93.30
43858;DHT22;29507;51.284;5.758;2023-07-16T11:12:35;22.60;92.90
43858;DHT22;29507;51.284;5.758;2023-07-16T11:15:01;22.50;93.30
43858;DHT22;29507;51.284;5.758;2023-07-16T11:17:27;22.60;93.10
43858;DHT22;29507;51.284;5.758;2023-07-16T11:19:54;22.70;92.90
43858;DHT22;29507;51.284;5.758;2023-07-16T11:22:25;22.70;92.10
43858;DHT22;29507;51.284;5.758;2023-07-16T11:24:51;22.70;92.90
43858;DHT22;29507;51.284;5.758;2023-07-16T11:27:21;22.80;93.40
43858;DHT22;29507;51.284;5.758;2023-07-16T11:29:48;22.80;93.40
43858;DHT22;29507;51.284;5.758;2023-07-16T11:34:57;22.50;93.30
43858;DHT22;29507;51.284;5.758;2023-07-16T11:37:27;22.40;93.80
43858;DHT22;29507;51.284;5.758;2023-07-16T11:40:04;22.40;93.60
43858;DHT22;29507;51.284;5.758;2023-07-16T11:42:33;22.50;94.00
43858;DHT22;29507;51.284;5.758;2023-07-16T11:44:59;22.50;93.20
43858;DHT22;29507;51.284;5.758;2023-07-16T11:47:26;22.60;94.00
43858;DHT22;29507;51.284;5.758;2023-07-16T11:49:52;22.70;93.40
43858;DHT22;29507;51.284;5.758;2023-07-16T11:52:23;22.90;92.80
43858;DHT22;29507;51.284;5.758;2023-07-16T11:54:49;23.00;92.60
43858;DHT22;29507;51.284;5.758;2023-07-16T11:57:15;23.20;91.90
43858;DHT22;29507;51.284;5.758;2023-07-16T11:59:41;23.30;92.50
43858;DHT22;29507;51.284;5.758;2023-07-16T12:02:07;23.60;90.90
43858;DHT22;29507;51.284;5.758;2023-07-16T12:04:33;23.80;90.10
43858;DHT22;29507;51.284;5.758;2023-07-16T12:06:58;23.80;90.10
43858;DHT22;29507;51.284;5.758;2023-07-16T12:09:24;23.70;89.90
43858;DHT22;29507;51.284;5.758;2023-07-16T12:11:50;23.70;90.20
43858;DHT22;29507;51.284;5.758;2023-07-16T12:14:15;23.50;89.30
43858;DHT22;29507;51.284;5.758;2023-07-16T12:16:41;23.50;90.10
43858;DHT22;29507;51.284;5.758;2023-07-16T12:19:08;23.50;89.30
43858;DHT22;29507;51.284;5.758;2023-07-16T12:21:34;23.80;89.30
43858;DHT22;29507;51.284;5.758;2023-07-16T12:23:59;24.20;90.00
43858;DHT22;29507;51.284;5.758;2023-07-16T12:26:25;24.40;86.30
43858;DHT22;29507;51.284;5.758;2023-07-16T12:28:50;24.20;86.20
43858;DHT22;29507;51.284;5.758;2023-07-16T12:31:16;24.10;87.90
43858;DHT22;29507;51.284;5.758;2023-07-16T12:33:43;24.20;87.90
43858;DHT22;29507;51.284;5.758;2023-07-16T12:36:09;24.20;87.40
43858;DHT22;29507;51.284;5.758;2023-07-16T12:38:34;24.20;86.90
43858;DHT22;29507;51.284;5.758;2023-07-16T12:41:00;24.30;88.60
43858;DHT22;29507;51.284;5.758;2023-07-16T12:43:26;24.50;85.60
43858;DHT22;29507;51.284;5.758;2023-07-16T12:45:51;24.50;85.00
43858;DHT22;29507;51.284;5.758;2023-07-16T12:48:17;24.70;84.10
43858;DHT22;29507;51.284;5.758;2023-07-16T12:50:42;25.00;84.00
43858;DHT22;29507;51.284;5.758;2023-07-16T12:53:08;25.40;84.80
43858;DHT22;29507;51.284;5.758;2023-07-16T12:55:34;25.50;84.10
43858;DHT22;29507;51.284;5.758;2023-07-16T12:57:59;25.10;82.10
43858;DHT22;29507;51.284;5.758;2023-07-16T13:00:25;25.50;83.90
43858;DHT22;29507;51.284;5.758;2023-07-16T13:02:51;26.00;83.80
43858;DHT22;29507;51.284;5.758;2023-07-16T13:05:16;26.40;82.20
43858;DHT22;29507;51.284;5.758;2023-07-16T13:07:42;26.00;78.20
43858;DHT22;29507;51.284;5.758;2023-07-16T13:10:09;25.60;79.90
43858;DHT22;29507;51.284;5.758;2023-07-16T13:12:34;25.30;81.60
43858;DHT22;29507;51.284;5.758;2023-07-16T13:15:00;25.20;81.40
43858;DHT22;29507;51.284;5.758;2023-07-16T13:17:26;25.10;81.00
43858;DHT22;29507;51.284;5.758;2023-07-16T13:19:51;25.30;80.50
43858;DHT22;29507;51.284;5.758;2023-07-16T13:22:17;25.90;79.30
43858;DHT22;29507;51.284;5.758;2023-07-16T13:24:42;26.80;77.30
43858;DHT22;29507;51.284;5.758;2023-07-16T13:27:18;27.10;74.30
43858;DHT22;29507;51.284;5.758;2023-07-16T13:29:44;26.90;75.00
43858;DHT22;29507;51.284;5.758;2023-07-16T13:32:10;26.50;76.00
43858;DHT22;29507;51.284;5.758;2023-07-16T13:34:35;25.80;75.60
43858;DHT22;29507;51.284;5.758;2023-07-16T13:37:01;25.40;77.20
43858;DHT22;29507;51.284;5.758;2023-07-16T13:39:26;25.10;78.10
43858;DHT22;29507;51.284;5.758;2023-07-16T13:41:52;25.20;77.50
43858;DHT22;29507;51.284;5.758;2023-07-16T13:44:17;25.00;77.10
43858;DHT22;29507;51.284;5.758;2023-07-16T13:46:43;24.80;77.90
43858;DHT22;29507;51.284;5.758;2023-07-16T13:49:09;25.70;78.60
43858;DHT22;29507;51.284;5.758;2023-07-16T13:51:34;25.50;77.10
43858;DHT22;29507;51.284;5.758;2023-07-16T13:54:00;25.30;77.80
43858;DHT22;29507;51.284;5.758;2023-07-16T13:56:26;25.40;76.70
43858;DHT22;29507;51.284;5.758;2023-07-16T13:58:51;26.20;77.30
43858;DHT22;29507;51.284;5.758;2023-07-16T14:01:19;27.30;74.70
43858;DHT22;29507;51.284;5.758;2023-07-16T14:03:44;27.20;73.20
43858;DHT22;29507;51.284;5.758;2023-07-16T14:06:10;27.70;72.80
43858;DHT22;29507;51.284;5.758;2023-07-16T14:08:36;26.90;72.90
43858;DHT22;29507;51.284;5.758;2023-07-16T14:11:01;26.50;73.90
43858;DHT22;29507;51.284;5.758;2023-07-16T14:13:28;26.90;74.80
43858;DHT22;29507;51.284;5.758;2023-07-16T14:15:54;26.90;74.00
43858;DHT22;29507;51.284;5.758;2023-07-16T14:18:19;26.30;73.40
43858;DHT22;29507;51.284;5.758;2023-07-16T14:20:45;26.10;73.80
43858;DHT22;29507;51.284;5.758;2023-07-16T14:23:11;25.80;74.70
43858;DHT22;29507;51.284;5.758;2023-07-16T14:25:37;25.70;75.60
43858;DHT22;29507;51.284;5.758;2023-07-16T14:28:02;25.60;74.70
43858;DHT22;29507;51.284;5.758;2023-07-16T14:30:28;25.40;75.00
43858;DHT22;29507;51.284;5.758;2023-07-16T14:32:55;25.40;74.30
43858;DHT22;29507;51.284;5.758;2023-07-16T14:35:21;25.60;75.10
43858;DHT22;29507;51.284;5.758;2023-07-16T14:37:47;26.20;75.10
43858;DHT22;29507;51.284;5.758;2023-07-16T14:40:13;26.30;75.00
43858;DHT22;29507;51.284;5.758;2023-07-16T14:42:39;26.00;75.90
43858;DHT22;29507;51.284;5.758;2023-07-16T14:45:05;25.60;74.10
43858;DHT22;29507;51.284;5.758;2023-07-16T14:47:33;25.10;75.80
43858;DHT22;29507;51.284;5.758;2023-07-16T14:49:58;24.60;76.40
43858;DHT22;29507;51.284;5.758;2023-07-16T14:52:24;24.40;77.10
43858;DHT22;29507;51.284;5.758;2023-07-16T14:54:50;24.20;78.10
43858;DHT22;29507;51.284;5.758;2023-07-16T14:57:16;24.10;78.60
43858;DHT22;29507;51.284;5.758;2023-07-16T14:59:42;23.90;78.70
43858;DHT22;29507;51.284;5.758;2023-07-16T15:02:08;23.90;79.40
43858;DHT22;29507;51.284;5.758;2023-07-16T15:04:34;23.90;79.60
43858;DHT22;29507;51.284;5.758;2023-07-16T15:06:59;23.90;80.30
43858;DHT22;29507;51.284;5.758;2023-07-16T15:09:25;24.10;80.30
43858;DHT22;29507;51.284;5.758;2023-07-16T15:11:51;24.20;79.30
43858;DHT22;29507;51.284;5.758;2023-07-16T15:14:16;24.30;79.00
43858;DHT22;29507;51.284;5.758;2023-07-16T15:16:42;24.40;79.20
43858;DHT22;29507;51.284;5.758;2023-07-16T15:19:08;24.50;78.90
43858;DHT22;29507;51.284;5.758;2023-07-16T15:21:35;24.70;77.50
43858;DHT22;29507;51.284;5.758;2023-07-16T15:24:04;24.70;76.80
43858;DHT22;29507;51.284;5.758;2023-07-16T15:26:30;24.90;78.20
43858;DHT22;29507;51.284;5.758;2023-07-16T15:28:57;24.90;77.10
43858;DHT22;29507;51.284;5.758;2023-07-16T15:31:22;24.80;77.10
43858;DHT22;29507;51.284;5.758;2023-07-16T15:33:55;24.70;77.10
43858;DHT22;29507;51.284;5.758;2023-07-16T15:36:22;24.50;77.80
43858;DHT22;29507;51.284;5.758;2023-07-16T15:38:47;24.40;77.70